Dryden Regional Airport

CYHD · 安大略, 加拿大

罗盘
风向 的 风向 280° Dryden Regional Airport 11/29
风向 到 风: 13 kt, 阵阵 18 kt, 4 beaufort

13 kt

3 kt
改变
0 ft 1.000 2.000 3.000 4.000 5.000
Cloud Cloud Cloud Cloud
SCT 5.000
METAR CYHD 262000Z AUTO 28013G18KT 9SM SCT050 16/04 A2973 RMK SLP081 DENSITY ALT 2000FT

METAR Dryden Regional Airport - CYHD/YHD

Dryden Regional Airport是,加拿大中的中型机场。 该机场位于纬度49,83170和经度-92,74420。 该机场有一条跑道: 11/29. 本场的ICAO机场代码为CYHD。 该机场的IATA代码为YHD。 机场在Winnipeg FIR中。

该航空气象观测是针对Dryden Regional Airport在2024年5月26日 15:00, 当地时间进行的。

机场观察

风向为280°,速度为13 kt。 已测得18 kt的阵风。

可见度为9 mi。

有疏云,零星散落的云朵在5.000 ft的高度。 没有观察到天花板。

温度和风寒是16 °C。 露点为4 °C,相对湿度为45%。 海平面上的气压为29,73 inHg (QNH)。

白天

今天,太阳从05:11升起,在21:04降落。 这适用于Dryden Regional Airport,世界夏令时可能有所不同。 当地时间与世界标准时间之间的时差为-5 小时。 夏令时目前正在进行中。

公司介绍

我们没有关于这个机场的公司信息。

体会

到Vliegles.nl去找飞行课程,跳伞和其他飞行体验。 浏览页面,了解Dryden Regional Airport附近所有可用的活动。 你也可以使用搜索功能来寻找你所在地附近的特定飞行课程、跳伞或其他飞行体验。

跑道

Id 标题 侧风 逆风 侧风 %
11/29 115°-295° 3-5 kt 13-17 kt 26 %

逆风成分最大的方向会被突出显示,并用于横风计算。 这并不一定意味着这个方向在使用。

乌云

5.000 ft SCT 疏云,零星散落的云朵

温度 & 天气

温度 16 °C
露点 4 °C
相对湿度 45%
Kp-index 3 (0-9)

评论

SLP081海平面压力为29,77 inHg (29,77 inHg)
DENSITY ALT 2000FT

白天

日出
05:11
中午
13:08
日落
21:04 (5:14)

小工具

你想在你的网站上有一个关于Dryden Regional Airport的当前航空天气(METAR)的小部件吗?

显示HTML代码
报告变更